Aérodrome :
LOGIN :

S'inscrire | Disclaimer

   EN    FR    IT 

 










Légende :    VFR   VFR Marginal   IFR   IFR Intensif   IFR Très Intensif
Visi : 
Plafond : 
>= 8 km
>= 3000ft
5 à 8 km
1000 à 3000 ft
1500m à 5 km
500 à 1000 ft
800 à 1500m
200 à 500 ft
< 800m
< 200 ft
Symboles :   Orages  Brouillard  Fortes neiges  Fortes précipitations  Vent > 20 kt
SIGMETs :   Divers  Orages  Givrage  Turbulence  Onde Orograph.  Cendres Volcan.







- Altitude de l'aérodrome : 125 ft
- Code IATA : MGL


EDLN - Mönchengladbach

DERNIER METAR :
  • 231750Z 23007KT 170V280 9999 BKN045 12/10 Q1008

METARs EXPIRÉS :
  • 231720Z 24006KT 200V280 9999 SCT018 BKN036 12/10 Q1007
  • 231650Z 24005KT 200V300 9999 BKN019 12/10 Q1006
  • 231620Z 26007KT 210V300 9999 BKN039 13/11 Q1006
  • 231550Z 27011KT 240V300 9999 -SHRA BKN032 13/11 Q1005
  • 231520Z 22010G26KT 160V260 9999 SCT037 BKN050 15/10 Q1004

TAF TAF EDLN
Valide du 23 à 18h jusqu'au 24 à 03h UTC


231700Z 2318/2403 23007KT 9999 BKN030
BECMG 2400/2403 17004KT
Pas de NOTAMs connus pour ce terrain.



MET'MAP, la Météo Aéronautique d'un coup d'oeil ! - Copyright ORBIFLY Décembre 2007 - Disclaimer

ORBIFLY MET'MAP TEAM :

Programmation & Développement : Alexandra Zaïnal
Conception & Développement : Baudouin d'Aumeries
Co-Programmation & Développement : Marc-Olivier Méhu
Soutien technique & logistique : Manuel Goepfert

Contact : metmap@orbifly.com




SOURCES & CREDITS :

   NOAA